This is the latest recevied weather packets stored in our database for station/object SQ5DN-4. If no packets are shown the sender has not sent any weather packets the latest 10 day(s).
| Time | Temp. | Humidity | Pressure | Rain* | Wind** | Luminosity | Snow |
|---|---|---|---|---|---|---|---|
| 1777869882 | 16.67° C | 44% | 1009 hPa | - | - | - | - |
| 1777869322 | 16.11° C | 46% | 1009 hPa | - | - | - | - |
| 1777868787 | 15° C | 48% | 1009 hPa | - | - | - | - |
| 1777868187 | 14.44° C | 49% | 1009 hPa | - | - | - | - |
| 1777867696 | 14.44° C | 49% | 1009 hPa | - | - | - | - |
| 1777867116 | 14.44° C | 50% | 1009 hPa | - | - | - | - |
| 1777866596 | 13.33° C | 53% | 1009 hPa | - | - | - | - |
| 1777865996 | 12.78° C | 55% | 1009 hPa | - | - | - | - |
| 1777865482 | 12.78° C | 54% | 1009 hPa | - | - | - | - |
| 1777865002 | 12.78° C | 55% | 1009 hPa | - | - | - | - |
| 1777864427 | 11.67° C | 57% | 1009 hPa | - | - | - | - |
| 1777863877 | 12.22° C | 55% | 1009 hPa | - | - | - | - |
| 1777863296 | 12.78° C | 54% | 1009 hPa | - | - | - | - |
| 1777862802 | 12.22° C | 55% | 1009 hPa | - | - | - | - |
| 1777862319 | 12.22° C | 55% | 1009 hPa | - | - | - | - |
| 1777861767 | 12.22° C | 56% | 1009 hPa | - | - | - | - |
| 1777861182 | 12.22° C | 57% | 1009 hPa | - | - | - | - |
| 1777860666 | 11.67° C | 58% | 1009 hPa | - | - | - | - |
| 1777860112 | 11.67° C | 60% | 1009 hPa | - | - | - | - |
| 1777859626 | 10.56° C | 62% | 1009 hPa | - | - | - | - |
| 1777859106 | 10.56° C | 62% | 1009 hPa | - | - | - | - |
| 1777858627 | 10.56° C | 62% | 1009 hPa | - | - | - | - |
| 1777858132 | 11.67° C | 60% | 1009 hPa | - | - | - | - |
| 1777857572 | 12.22° C | 58% | 1010 hPa | - | - | - | - |
| 1777856976 | 12.78° C | 58% | 1010 hPa | - | - | - | - |
* Rain since midnight (hover to see other rain measurements)
** Current wind speed in m/s (hover to see current wind gust speed)